createdAt,value
2023-03-01T00:01:40.420Z,101986.94
2023-03-01T00:04:12.144Z,101981.39
2023-03-01T00:06:47.071Z,101980.98
2023-03-01T00:09:22.306Z,101978.87
2023-03-01T00:11:54.012Z,101984.73
2023-03-01T00:14:25.750Z,101985.98
2023-03-01T00:16:57.531Z,101982.59
2023-03-01T00:19:29.549Z,101982.75
2023-03-01T00:22:01.322Z,101978.52
2023-03-01T00:24:33.079Z,101979.56
2023-03-01T00:27:04.879Z,101977.71
2023-03-01T00:29:36.581Z,101978.69
2023-03-01T00:32:08.738Z,101973.48
2023-03-01T00:34:40.515Z,101966.94
2023-03-01T00:37:12.237Z,101963.48
2023-03-01T00:39:45.552Z,101962.78
2023-03-01T00:42:17.704Z,101958.11
2023-03-01T00:44:49.360Z,101958.84
2023-03-01T00:47:21.494Z,101955.52
2023-03-01T00:49:53.708Z,101958.80
2023-03-01T00:52:25.396Z,101952.20
2023-03-01T00:54:58.783Z,101947.61
2023-03-01T00:57:30.806Z,101945.77
2023-03-01T01:00:04.053Z,101942.06
2023-03-01T01:02:37.376Z,101941.79
2023-03-01T01:05:10.439Z,101944.81
2023-03-01T01:07:42.444Z,101945.24
2023-03-01T01:10:18.175Z,101942.27
2023-03-01T01:12:49.938Z,101932.69
2023-03-01T01:15:22.220Z,101932.95
2023-03-01T01:17:53.962Z,101935.23
2023-03-01T01:20:27.149Z,101937.88
2023-03-01T01:22:58.907Z,101938.07
2023-03-01T01:25:30.627Z,101939.23
2023-03-01T01:28:02.325Z,101939.46
2023-03-01T01:30:34.127Z,101932.43
2023-03-01T01:33:06.143Z,101930.71
2023-03-01T01:35:37.913Z,101932.16
2023-03-01T01:38:09.650Z,101936.30
2023-03-01T01:40:47.523Z,101936.80
2023-03-01T01:43:24.744Z,101931.52
2023-03-01T01:46:01.487Z,101927.71
2023-03-01T01:48:42.363Z,101928.64
2023-03-01T01:51:19.906Z,101924.83
2023-03-01T01:53:57.611Z,101919.94
2023-03-01T01:56:31.200Z,101916.31
2023-03-01T01:59:04.661Z,101914.98
2023-03-01T02:01:36.551Z,101913.66
2023-03-01T02:04:08.729Z,101914.24
2023-03-01T02:06:47.632Z,101912.34
2023-03-01T02:09:23.800Z,101908.20
2023-03-01T02:11:55.825Z,101897.46
2023-03-01T02:14:27.521Z,101899.56
2023-03-01T02:16:59.257Z,101886.91
2023-03-01T02:19:41.911Z,101877.60
2023-03-01T02:22:17.025Z,101870.50
2023-03-01T02:24:58.489Z,101873.06
2023-03-01T02:27:37.530Z,101870.11
2023-03-01T02:30:13.303Z,101866.53
2023-03-01T02:32:45.250Z,101866.48
2023-03-01T02:35:20.284Z,101869.45
2023-03-01T02:37:52.404Z,101870.48
2023-03-01T02:40:24.936Z,101867.26
2023-03-01T02:42:59.342Z,101868.61
2023-03-01T02:45:31.205Z,101856.30
2023-03-01T02:48:03.445Z,101853.69
2023-03-01T02:50:53.372Z,101853.34
2023-03-01T02:53:36.420Z,101853.92
2023-03-01T02:56:13.940Z,101851.94
2023-03-01T02:58:48.951Z,101861.71
2023-03-01T03:01:22.148Z,101862.66
2023-03-01T03:03:53.826Z,101861.04
2023-03-01T03:06:25.653Z,101860.30
2023-03-01T03:08:57.552Z,101858.40
2023-03-01T03:11:30.439Z,101858.77
2023-03-01T03:14:02.461Z,101857.11
2023-03-01T03:16:34.569Z,101857.33
2023-03-01T03:19:06.842Z,101855.71
2023-03-01T03:21:39.026Z,101852.39
2023-03-01T03:24:11.184Z,101852.48
2023-03-01T03:26:43.047Z,101851.23
2023-03-01T03:29:15.127Z,101843.20
2023-03-01T03:31:47.185Z,101843.40
2023-03-01T03:34:18.935Z,101842.87
2023-03-01T03:36:57.562Z,101840.38
2023-03-01T03:39:29.806Z,101848.31
2023-03-01T03:42:01.496Z,101848.09
2023-03-01T03:44:33.510Z,101848.25
2023-03-01T03:47:05.596Z,101850.92
2023-03-01T03:49:37.331Z,101850.75
2023-03-01T03:52:14.261Z,101853.12
2023-03-01T03:54:48.160Z,101846.92
2023-03-01T03:57:26.795Z,101844.86
2023-03-01T04:00:01.809Z,101837.80
2023-03-01T04:02:45.609Z,101835.87
2023-03-01T04:05:21.904Z,101837.31
2023-03-01T04:08:06.668Z,101838.98
2023-03-01T04:10:43.342Z,101837.27
2023-03-01T04:13:17.860Z,101834.23
2023-03-01T04:15:50.464Z,101832.58
2023-03-01T04:18:22.036Z,101833.99
2023-03-01T04:20:56.257Z,101838.77
2023-03-01T04:23:28.318Z,101836.73
2023-03-01T04:26:01.521Z,101834.17
2023-03-01T04:28:35.841Z,101832.58
2023-03-01T04:31:14.873Z,101834.58
2023-03-01T04:33:48.448Z,101834.91
2023-03-01T04:36:22.010Z,101841.47
2023-03-01T04:38:56.469Z,101841.00
2023-03-01T04:41:28.645Z,101839.08
2023-03-01T04:44:01.323Z,101834.88
2023-03-01T04:46:32.172Z,101831.86
2023-03-01T04:49:04.685Z,101834.66
2023-03-01T04:51:37.452Z,101840.02
2023-03-01T04:54:09.734Z,101831.42
2023-03-01T04:56:41.699Z,101832.93
2023-03-01T04:59:13.552Z,101831.23
2023-03-01T05:01:45.302Z,101831.05
2023-03-01T05:04:17.079Z,101832.30
2023-03-01T05:06:48.761Z,101822.61
2023-03-01T05:09:20.487Z,101825.61
2023-03-01T05:11:52.694Z,101826.64
2023-03-01T05:14:24.627Z,101825.38
2023-03-01T05:16:56.559Z,101825.00
2023-03-01T05:19:28.407Z,101831.34
2023-03-01T05:22:06.135Z,101832.75
2023-03-01T05:24:39.731Z,101835.29
2023-03-01T05:27:13.142Z,101816.33
2023-03-01T05:29:45.989Z,101829.30
2023-03-01T05:32:18.241Z,101830.49
2023-03-01T05:34:50.221Z,101834.47
2023-03-01T05:37:21.858Z,101835.53
2023-03-01T05:39:53.579Z,101833.27
2023-03-01T05:42:25.197Z,101835.86
2023-03-01T05:44:57.711Z,101833.20
2023-03-01T05:47:28.252Z,101842.39
2023-03-01T05:50:01.237Z,101845.09
2023-03-01T05:52:33.069Z,101849.36
2023-03-01T05:55:05.037Z,101842.60
2023-03-01T05:57:37.110Z,101837.46
2023-03-01T06:00:11.115Z,101839.44
2023-03-01T06:02:45.868Z,101839.84
2023-03-01T06:05:18.287Z,101837.59
2023-03-01T06:07:50.947Z,101828.15
2023-03-01T06:10:22.050Z,101823.05
2023-03-01T06:12:53.805Z,101820.73
2023-03-01T06:15:26.793Z,101823.39
2023-03-01T06:18:00.399Z,101823.30
2023-03-01T06:20:32.770Z,101825.70
2023-03-01T06:23:05.160Z,101826.73
2023-03-01T06:25:37.094Z,101830.20
2023-03-01T06:28:09.266Z,101825.52
2023-03-01T06:30:42.065Z,101828.82
2023-03-01T06:33:14.307Z,101814.95
2023-03-01T06:35:46.244Z,101816.83
2023-03-01T06:38:19.957Z,101815.74
2023-03-01T06:40:57.501Z,101816.02
2023-03-01T06:43:29.564Z,101819.89
2023-03-01T06:46:02.018Z,101821.19
2023-03-01T06:48:33.704Z,101820.33
2023-03-01T06:51:06.243Z,101816.35
2023-03-01T06:53:38.038Z,101822.92
2023-03-01T06:56:10.213Z,101820.55
2023-03-01T06:58:42.517Z,101820.30
2023-03-01T07:01:14.402Z,101818.73
2023-03-01T07:03:46.246Z,101816.45
2023-03-01T07:06:18.616Z,101814.99
2023-03-01T07:08:50.452Z,101816.81
2023-03-01T07:11:22.212Z,101816.19
2023-03-01T07:13:53.970Z,101818.45
2023-03-01T07:16:25.985Z,101820.86
2023-03-01T07:18:59.798Z,101826.45
2023-03-01T07:21:31.613Z,101825.16
2023-03-01T07:24:03.380Z,101833.27
2023-03-01T07:26:35.529Z,101832.41
2023-03-01T07:29:11.890Z,101830.42
2023-03-01T07:31:43.630Z,101824.17
2023-03-01T07:34:15.811Z,101828.83
2023-03-01T07:36:47.620Z,101828.79
2023-03-01T07:39:19.812Z,101827.78
2023-03-01T07:41:51.700Z,101820.61
2023-03-01T07:44:26.659Z,101824.86
2023-03-01T07:46:59.132Z,101826.83
2023-03-01T07:49:31.349Z,101830.56
2023-03-01T07:52:03.249Z,101828.71
2023-03-01T07:54:35.302Z,101829.64
2023-03-01T07:57:07.422Z,101836.48
2023-03-01T07:59:39.743Z,101836.36
2023-03-01T08:02:12.280Z,101837.95
2023-03-01T08:04:44.650Z,101835.82
2023-03-01T08:07:16.541Z,101836.00
2023-03-01T08:09:48.771Z,101832.66
2023-03-01T08:12:22.297Z,101832.33
2023-03-01T08:14:54.082Z,101827.76
2023-03-01T08:17:26.273Z,101828.80
2023-03-01T08:19:59.029Z,101830.02
2023-03-01T08:22:29.390Z,101826.61
2023-03-01T08:25:01.250Z,101818.31
2023-03-01T08:27:33.052Z,101819.48
2023-03-01T08:30:06.266Z,101821.93
2023-03-01T08:32:39.764Z,101817.15
2023-03-01T08:35:12.195Z,101818.65
2023-03-01T08:37:44.117Z,101814.52
2023-03-01T08:40:17.567Z,101817.11
2023-03-01T08:42:49.443Z,101817.08
2023-03-01T08:45:21.703Z,101814.35
2023-03-01T08:47:55.739Z,101813.41
2023-03-01T08:50:28.283Z,101808.70
2023-03-01T08:53:00.073Z,101804.27
2023-03-01T08:55:31.870Z,101807.20
2023-03-01T08:58:03.808Z,101798.39
2023-03-01T09:00:36.727Z,101799.78
2023-03-01T09:03:08.538Z,101795.38
2023-03-01T09:05:40.359Z,101798.38
2023-03-01T09:08:12.160Z,101799.08
2023-03-01T09:10:44.671Z,101797.16
2023-03-01T09:13:16.466Z,101792.54
2023-03-01T09:15:49.022Z,101785.09
2023-03-01T09:18:19.307Z,101779.10
2023-03-01T09:20:51.704Z,101776.02
2023-03-01T09:23:23.831Z,101779.45
2023-03-01T09:25:55.987Z,101778.80
2023-03-01T09:28:30.281Z,101784.78
2023-03-01T09:31:03.646Z,101784.70
2023-03-01T09:33:34.806Z,101786.48
2023-03-01T09:36:09.640Z,101794.38
2023-03-01T09:38:41.580Z,101791.45
2023-03-01T09:41:33.253Z,101794.38
2023-03-01T09:44:12.234Z,101787.88
2023-03-01T09:46:47.247Z,101784.98
2023-03-01T09:49:23.351Z,101785.02
2023-03-01T09:52:01.916Z,101778.62
2023-03-01T09:54:33.901Z,101779.41
2023-03-01T09:57:20.200Z,101777.29
2023-03-01T10:00:11.468Z,101783.26
2023-03-01T10:02:49.839Z,101787.05
2023-03-01T10:05:36.966Z,101786.95
2023-03-01T10:08:37.304Z,101786.26
2023-03-01T10:11:35.253Z,101785.98
2023-03-01T10:14:17.659Z,101781.16
2023-03-01T10:16:55.002Z,101778.98
2023-03-01T10:19:32.381Z,101780.75
2023-03-01T10:22:13.219Z,101779.52
2023-03-01T10:24:45.737Z,101776.67
2023-03-01T10:27:24.253Z,101773.45
2023-03-01T10:30:08.048Z,101777.77
2023-03-01T10:32:40.223Z,101776.35
2023-03-01T10:35:23.059Z,101774.41
2023-03-01T10:38:09.695Z,101768.48
2023-03-01T10:40:55.786Z,101764.37
2023-03-01T10:43:34.240Z,101760.90
2023-03-01T10:46:23.720Z,101753.91
2023-03-01T10:49:09.990Z,101755.98
2023-03-01T10:51:44.802Z,101753.09
2023-03-01T10:54:27.433Z,101747.95
2023-03-01T10:57:02.102Z,101745.05
2023-03-01T10:59:35.678Z,101740.66
2023-03-01T11:02:27.146Z,101739.92
2023-03-01T11:05:16.180Z,101733.31
2023-03-01T11:07:53.063Z,101727.14
2023-03-01T11:10:28.321Z,101726.01
2023-03-01T11:13:15.973Z,101726.67
2023-03-01T11:16:02.711Z,101727.05
2023-03-01T11:18:46.841Z,101726.17
2023-03-01T11:21:19.841Z,101730.30
2023-03-01T11:23:53.424Z,101719.92
2023-03-01T11:26:25.993Z,101712.43
2023-03-01T11:29:02.740Z,101716.72
2023-03-01T11:31:36.601Z,101712.00
2023-03-01T11:34:16.963Z,101708.16
2023-03-01T11:36:54.802Z,101711.25
2023-03-01T11:39:36.089Z,101713.98
2023-03-01T11:42:19.326Z,101707.33
2023-03-01T11:44:56.394Z,101710.17
2023-03-01T11:47:42.218Z,101705.83
2023-03-01T11:50:28.090Z,101697.91
2023-03-01T11:53:18.065Z,101695.12
2023-03-01T11:56:04.670Z,101692.56
2023-03-01T11:58:47.925Z,101693.48
2023-03-01T12:01:32.944Z,101690.02
2023-03-01T12:04:50.928Z,101687.47
2023-03-01T12:07:27.356Z,101691.50
2023-03-01T12:10:16.943Z,101687.20
2023-03-01T12:13:17.254Z,101687.09
2023-03-01T12:16:13.187Z,101685.34
2023-03-01T12:19:09.831Z,101680.28
2023-03-01T12:21:57.368Z,101675.91
2023-03-01T12:24:44.964Z,101666.52
2023-03-01T12:27:29.289Z,101655.91
2023-03-01T12:30:19.219Z,101649.45
2023-03-01T12:33:02.532Z,101647.48
2023-03-01T12:36:04.966Z,101647.66
2023-03-01T12:38:48.832Z,101639.75
2023-03-01T12:41:35.794Z,101641.02
2023-03-01T12:44:22.140Z,101648.06
2023-03-01T12:47:09.168Z,101647.14
2023-03-01T12:49:46.209Z,101642.62
2023-03-01T12:52:24.158Z,101644.30
2023-03-01T12:54:58.948Z,101648.44
2023-03-01T12:57:39.958Z,101645.52
2023-03-01T13:00:28.796Z,101638.13
2023-03-01T13:03:11.502Z,101638.17
2023-03-01T13:05:57.006Z,101640.70
2023-03-01T13:08:35.572Z,101641.25
2023-03-01T13:11:13.924Z,101639.03
2023-03-01T13:13:47.855Z,101632.21
2023-03-01T13:16:45.996Z,101625.75
2023-03-01T13:19:20.129Z,101622.30
2023-03-01T13:21:55.079Z,101613.30
2023-03-01T13:24:35.470Z,101606.08
2023-03-01T13:27:25.812Z,101610.23
2023-03-01T13:30:04.516Z,101604.45
2023-03-01T13:32:44.314Z,101604.29
2023-03-01T13:35:46.523Z,101599.95
2023-03-01T13:38:49.980Z,101599.58
2023-03-01T13:41:53.408Z,101596.52
2023-03-01T13:44:34.957Z,101593.09
2023-03-01T13:47:18.365Z,101588.77
2023-03-01T13:49:55.389Z,101593.09
2023-03-01T13:52:37.740Z,101591.65
2023-03-01T13:55:29.253Z,101589.85
2023-03-01T13:58:03.967Z,101584.80
2023-03-01T14:00:38.951Z,101586.79
2023-03-01T14:03:16.002Z,101583.54
2023-03-01T14:06:14.226Z,101585.89
2023-03-01T14:08:50.589Z,101585.16
2023-03-01T14:11:38.030Z,101585.17
2023-03-01T14:14:26.038Z,101578.13
2023-03-01T14:17:11.107Z,101576.52
2023-03-01T14:19:45.881Z,101577.60
2023-03-01T14:22:24.109Z,101576.33
2023-03-01T14:24:59.451Z,101575.78
2023-03-01T14:27:35.933Z,101575.95
2023-03-01T14:30:17.336Z,101575.95
2023-03-01T14:32:56.608Z,101573.79
2023-03-01T14:35:31.264Z,101569.11
2023-03-01T14:38:03.522Z,101568.20
2023-03-01T14:40:37.330Z,101565.14
2023-03-01T14:43:24.895Z,101562.63
2023-03-01T14:45:56.846Z,101561.89
2023-03-01T14:48:32.054Z,101566.23
2023-03-01T14:51:07.253Z,101561.72
2023-03-01T14:53:50.369Z,101559.19
2023-03-01T14:56:24.755Z,101559.90
2023-03-01T14:59:00.984Z,101560.44
2023-03-01T15:01:40.124Z,101557.91
2023-03-01T15:04:18.364Z,101554.85
2023-03-01T15:06:55.734Z,101554.29
2023-03-01T15:09:28.126Z,101553.91
2023-03-01T15:12:02.618Z,101556.42
2023-03-01T15:14:55.018Z,101553.70
2023-03-01T15:17:39.366Z,101553.33
2023-03-01T15:20:22.808Z,101547.73
2023-03-01T15:22:55.215Z,101544.98
2023-03-01T15:25:37.308Z,101547.67
2023-03-01T15:28:22.938Z,101546.20
2023-03-01T15:31:02.570Z,101542.57
2023-03-01T15:33:44.238Z,101542.90
2023-03-01T15:36:39.435Z,101543.95
2023-03-01T15:39:38.538Z,101539.40
2023-03-01T15:42:13.427Z,101546.09
2023-03-01T15:44:46.232Z,101544.45
2023-03-01T15:47:30.936Z,101545.69
2023-03-01T15:50:04.288Z,101541.15
2023-03-01T15:52:44.673Z,101541.48
2023-03-01T15:55:21.768Z,101542.52
2023-03-01T15:58:03.318Z,101539.80
2023-03-01T16:00:36.550Z,101543.19
2023-03-01T16:03:13.496Z,101541.89
2023-03-01T16:05:46.874Z,101541.14
2023-03-01T16:08:20.651Z,101541.27
2023-03-01T16:10:55.440Z,101537.85
2023-03-01T16:13:29.458Z,101534.05
2023-03-01T16:16:01.476Z,101531.47
2023-03-01T16:18:33.532Z,101532.92
2023-03-01T16:21:06.411Z,101531.64
2023-03-01T16:23:38.848Z,101532.50
2023-03-01T16:26:11.783Z,101527.05
2023-03-01T16:28:44.587Z,101529.97
2023-03-01T16:31:16.314Z,101533.04
2023-03-01T16:33:51.027Z,101528.67
2023-03-01T16:36:25.361Z,101523.35
2023-03-01T16:38:59.682Z,101517.77
2023-03-01T16:41:32.351Z,101520.21
2023-03-01T16:44:04.550Z,101516.27
2023-03-01T16:46:36.327Z,101516.64
2023-03-01T16:49:08.015Z,101515.17
2023-03-01T16:51:39.875Z,101517.64
2023-03-01T16:54:12.555Z,101514.41
2023-03-01T16:56:44.371Z,101519.60
2023-03-01T16:59:16.518Z,101514.14
2023-03-01T17:01:48.488Z,101512.49
2023-03-01T17:04:20.405Z,101509.27
2023-03-01T17:06:52.745Z,101514.41
2023-03-01T17:09:24.543Z,101512.82
2023-03-01T17:11:56.411Z,101516.91
2023-03-01T17:14:28.351Z,101516.10
2023-03-01T17:17:00.538Z,101512.48
2023-03-01T17:19:32.803Z,101515.45
2023-03-01T17:22:04.862Z,101516.36
2023-03-01T17:24:38.775Z,101513.48
2023-03-01T17:27:13.665Z,101514.73
2023-03-01T17:29:45.565Z,101513.09
2023-03-01T17:32:18.355Z,101512.05
2023-03-01T17:34:50.740Z,101509.90
2023-03-01T17:37:22.635Z,101513.11
2023-03-01T17:39:54.574Z,101517.77
2023-03-01T17:42:27.243Z,101520.46
2023-03-01T17:44:59.004Z,101521.87
2023-03-01T17:47:30.897Z,101512.11
2023-03-01T17:50:03.866Z,101514.43
2023-03-01T17:52:35.608Z,101510.99
2023-03-01T17:55:09.846Z,101515.84
2023-03-01T17:57:44.526Z,101514.09
2023-03-01T18:00:20.543Z,101515.88
2023-03-01T18:02:54.741Z,101516.02
2023-03-01T18:05:27.633Z,101514.48
2023-03-01T18:07:59.874Z,101512.05
2023-03-01T18:10:32.307Z,101511.73
2023-03-01T18:13:04.350Z,101515.99
2023-03-01T18:15:36.246Z,101514.45
2023-03-01T18:18:08.172Z,101517.63
2023-03-01T18:20:40.017Z,101515.34
2023-03-01T18:23:12.288Z,101515.61
2023-03-01T18:25:44.641Z,101514.27
2023-03-01T18:28:16.438Z,101518.23
2023-03-01T18:30:48.240Z,101516.05
2023-03-01T18:33:20.125Z,101516.14
2023-03-01T18:35:52.234Z,101517.60
2023-03-01T18:38:24.053Z,101509.38
2023-03-01T18:40:56.423Z,101511.63
2023-03-01T18:43:30.067Z,101506.39
2023-03-01T18:46:05.547Z,101501.59
2023-03-01T18:48:40.417Z,101508.89
2023-03-01T18:51:18.332Z,101512.11
2023-03-01T18:53:54.774Z,101514.46
2023-03-01T18:56:27.125Z,101521.85
2023-03-01T18:58:59.431Z,101525.78
2023-03-01T19:01:35.504Z,101523.63
2023-03-01T19:04:10.995Z,101522.16
2023-03-01T19:06:43.230Z,101520.86
2023-03-01T19:09:15.931Z,101526.25
2023-03-01T19:11:48.029Z,101519.71
2023-03-01T19:14:20.143Z,101527.94
2023-03-01T19:16:52.202Z,101532.63
2023-03-01T19:19:24.233Z,101534.33
2023-03-01T19:22:05.713Z,101538.17
2023-03-01T19:24:37.940Z,101534.16
2023-03-01T19:27:10.100Z,101536.76
2023-03-01T19:29:43.561Z,101544.00
2023-03-01T19:32:15.418Z,101543.19
2023-03-01T19:34:47.424Z,101546.79
2023-03-01T19:37:19.144Z,101553.80
2023-03-01T19:39:50.918Z,101559.30
2023-03-01T19:42:27.177Z,101556.33
2023-03-01T19:44:59.990Z,101556.07
2023-03-01T19:47:32.253Z,101549.34
2023-03-01T19:50:04.141Z,101549.70
2023-03-01T19:52:36.059Z,101544.98
2023-03-01T19:55:10.268Z,101548.20
2023-03-01T19:57:42.383Z,101548.16
2023-03-01T20:00:16.787Z,101545.21
2023-03-01T20:02:49.094Z,101545.80
2023-03-01T20:05:21.398Z,101546.54
2023-03-01T20:07:57.482Z,101543.78
2023-03-01T20:10:31.580Z,101541.22
2023-03-01T20:13:06.232Z,101541.02
2023-03-01T20:15:38.815Z,101548.46
2023-03-01T20:18:11.017Z,101549.56
2023-03-01T20:20:41.705Z,101553.36
2023-03-01T20:23:13.560Z,101550.73
2023-03-01T20:25:45.544Z,101552.50
2023-03-01T20:28:18.010Z,101552.16
2023-03-01T20:30:50.410Z,101553.55
2023-03-01T20:33:22.364Z,101557.97
2023-03-01T20:35:55.161Z,101559.77
2023-03-01T20:38:27.496Z,101555.58
2023-03-01T20:41:04.540Z,101553.63
2023-03-01T20:43:37.091Z,101551.30
2023-03-01T20:46:11.317Z,101550.95
2023-03-01T20:48:43.920Z,101552.05
2023-03-01T20:51:15.953Z,101549.95
2023-03-01T20:53:49.484Z,101548.98
2023-03-01T20:56:22.758Z,101543.60
2023-03-01T20:59:13.123Z,101543.90
2023-03-01T21:01:45.011Z,101539.21
2023-03-01T21:04:19.084Z,101535.92
2023-03-01T21:06:51.004Z,101536.40
2023-03-01T21:09:23.507Z,101533.69
2023-03-01T21:11:56.678Z,101528.99
2023-03-01T21:14:28.762Z,101532.64
2023-03-01T21:17:01.287Z,101526.68
2023-03-01T21:19:36.522Z,101528.53
2023-03-01T21:22:08.546Z,101525.95
2023-03-01T21:24:42.473Z,101530.83
2023-03-01T21:27:15.433Z,101528.68
2023-03-01T21:29:50.989Z,101528.69
2023-03-01T21:32:23.040Z,101523.23
2023-03-01T21:34:55.026Z,101524.21
2023-03-01T21:37:28.085Z,101523.14
2023-03-01T21:39:59.828Z,101523.48
2023-03-01T21:42:34.925Z,101524.66
2023-03-01T21:45:07.930Z,101524.10
2023-03-01T21:47:40.333Z,101524.52
2023-03-01T21:50:14.482Z,101523.64
2023-03-01T21:52:46.269Z,101524.55
2023-03-01T21:55:18.036Z,101524.27
2023-03-01T21:57:49.989Z,101522.79
2023-03-01T22:00:24.124Z,101530.36
2023-03-01T22:02:58.014Z,101518.89
2023-03-01T22:05:30.282Z,101520.45
2023-03-01T22:08:02.626Z,101516.89
2023-03-01T22:10:34.556Z,101513.39
2023-03-01T22:13:06.369Z,101513.59
2023-03-01T22:15:43.207Z,101509.73
2023-03-01T22:18:15.617Z,101514.34
2023-03-01T22:20:47.896Z,101516.52
2023-03-01T22:23:19.634Z,101508.41
2023-03-01T22:25:51.394Z,101509.73
2023-03-01T22:28:23.088Z,101509.27
2023-03-01T22:30:55.420Z,101514.95
2023-03-01T22:33:27.222Z,101505.79
2023-03-01T22:35:59.075Z,101509.86
2023-03-01T22:38:30.931Z,101504.25
2023-03-01T22:41:05.242Z,101502.08
2023-03-01T22:43:37.333Z,101504.44
2023-03-01T22:46:18.995Z,101507.02
2023-03-01T22:48:51.571Z,101504.52
2023-03-01T22:51:25.998Z,101499.76
2023-03-01T22:53:58.739Z,101502.50
2023-03-01T22:56:30.700Z,101502.66
2023-03-01T22:59:04.849Z,101507.77
2023-03-01T23:01:38.586Z,101508.84
2023-03-01T23:04:10.899Z,101511.31
2023-03-01T23:06:51.877Z,101509.23
2023-03-01T23:09:26.745Z,101507.39
2023-03-01T23:11:59.957Z,101508.85
2023-03-01T23:14:33.338Z,101509.76
2023-03-01T23:17:07.156Z,101508.46
2023-03-01T23:19:39.228Z,101508.59
2023-03-01T23:22:11.203Z,101505.05
2023-03-01T23:24:43.003Z,101501.16
2023-03-01T23:27:15.698Z,101505.52
2023-03-01T23:29:47.746Z,101505.06
2023-03-01T23:32:19.938Z,101506.62
2023-03-01T23:34:51.726Z,101501.55
2023-03-01T23:37:23.602Z,101498.39
2023-03-01T23:39:55.369Z,101496.27
2023-03-01T23:42:27.219Z,101498.65
2023-03-01T23:44:59.191Z,101501.75
2023-03-01T23:47:31.300Z,101497.19
2023-03-01T23:50:03.404Z,101496.80
2023-03-01T23:52:41.634Z,101502.79
2023-03-01T23:55:15.451Z,101501.75
2023-03-01T23:57:48.362Z,101495.88
